Private Wetterstation Wechselburg
Wetterdaten: Dienstag, 12.03.2013
Datum Zeit Temp. +2m Bodentemp. Temp.+5cm Temp. Wind Windchill X Diff Temp. Feuchte +2m Feuchte +5cm Sonnenschein Luftdruck Regen Wind Richtung Richtung Sonnenschein UV Taupunkt Windchill Windben
12.03.2013 00:00 -5,2 C 8,4 C -4,3 C -4,8 C -4,8 C 0,4 C 85 % 86 % 0 % 1006,9 hPa 0,0 l/m 1,6 km/h (1 Bft) O-NO 67 0 min 0,0 UV-I -7,3 C -4,8 C 2,6 km/h (1 Bft)
12.03.2013 00:05 -5,2 C 8,4 C -4,4 C -5,0 C -5,0 C 0,2 C 85 % 86 % 0 % 1006,9 hPa 0,0 l/m 2,3 km/h (1 Bft) O-NO 67 0 min 0,0 UV-I -7,3 C -5,0 C 1,8 km/h (1 Bft)
12.03.2013 00:10 -5,2 C 8,3 C -4,3 C -5,0 C -5,0 C 0,2 C 85 % 86 % 0 % 1006,9 hPa 0,0 l/m 2,3 km/h (1 Bft) O-NO 67 0 min 0,0 UV-I -7,3 C -5,0 C 3,5 km/h (1 Bft)
12.03.2013 00:15 -5,1 C 8,3 C -4,4 C -5,0 C -5,0 C 0,1 C 85 % 86 % 0 % 1007,4 hPa 0,0 l/m 2,3 km/h (1 Bft) O-NO 67 0 min 0,0 UV-I -7,2 C -5,0 C 4,5 km/h (1 Bft)
12.03.2013 00:20 -5,3 C 8,3 C -4,4 C -5,2 C -5,2 C 0,1 C 85 % 86 % 0 % 1007,4 hPa 0,0 l/m 2,4 km/h (1 Bft) O-NO 67 0 min 0,0 UV-I -7,4 C -5,2 C 2,9 km/h (1 Bft)
12.03.2013 00:25 -5,3 C 8,3 C -4,4 C -5,0 C -5,0 C 0,3 C 85 % 86 % 0 % 1007,4 hPa 0,0 l/m 2,3 km/h (1 Bft) O-NO 67 0 min 0,0 UV-I -7,4 C -5,0 C 3,9 km/h (1 Bft)
12.03.2013 00:30 -5,3 C 8,3 C -4,4 C -5,3 C -5,4 C 0,0 C 85 % 86 % 0 % 1007,4 hPa 0,0 l/m 2,7 km/h (1 Bft) O-NO 67 0 min 0,0 UV-I -7,4 C -5,4 C 2,9 km/h (1 Bft)
12.03.2013 00:35 -5,3 C 8,3 C -4,4 C -5,0 C -5,0 C 0,3 C 85 % 86 % 0 % 1007,2 hPa 0,0 l/m 2,3 km/h (1 Bft) O-NO 67 0 min 0,0 UV-I -7,4 C -5,0 C 0,0 km/h (0 Bft)
12.03.2013 00:41 -5,3 C 8,4 C -4,4 C -4,8 C -4,8 C 0,5 C 85 % 86 % 0 % 1007,2 hPa 0,0 l/m 1,1 km/h (1 Bft) N 0 0 min 0,0 UV-I -7,4 C -4,8 C 0,0 km/h (0 Bft)
12.03.2013 01:00 -5,3 C 8,3 C -4,4 C -4,8 C -4,8 C 0,5 C 85 % 86 % 0 % 1007,2 hPa 0,0 l/m 1,3 km/h (1 Bft) O-NO 67 0 min 0,0 UV-I -7,4 C -4,8 C 1,8 km/h (1 Bft)
12.03.2013 01:05 -5,3 C 8,3 C -4,3 C -4,8 C -4,8 C 0,5 C 85 % 86 % 0 % 1007,2 hPa 0,0 l/m 1,3 km/h (1 Bft) O-NO 67 0 min 0,0 UV-I -7,4 C -4,8 C 1,8 km/h (1 Bft)
12.03.2013 01:10 -5,3 C 8,3 C -4,4 C -4,8 C -4,8 C 0,5 C 85 % 86 % 0 % 1007,2 hPa 0,0 l/m 1,3 km/h (1 Bft) O-NO 67 0 min 0,0 UV-I -7,4 C -4,8 C 0,0 km/h (0 Bft)
12.03.2013 01:15 -5,3 C 8,3 C -4,3 C -4,8 C -4,8 C 0,5 C 85 % 86 % 0 % 1006,9 hPa 0,0 l/m 1,1 km/h (1 Bft) O-NO 67 0 min 0,0 UV-I -7,4 C -4,8 C 7,6 km/h (2 Bft)
12.03.2013 01:20 -5,3 C 8,3 C -4,5 C -4,9 C -4,9 C 0,4 C 85 % 86 % 0 % 1006,9 hPa 0,0 l/m 1,3 km/h (1 Bft) O-NO 67 0 min 0,0 UV-I -7,4 C -4,9 C 3,2 km/h (1 Bft)
12.03.2013 01:25 -5,3 C 8,3 C -4,5 C -4,9 C -4,9 C 0,4 C 85 % 86 % 0 % 1006,9 hPa 0,0 l/m 1,9 km/h (1 Bft) O-NO 67 0 min 0,0 UV-I -7,4 C -4,9 C 1,8 km/h (1 Bft)
12.03.2013 01:30 -5,3 C 8,3 C -4,5 C -4,9 C -4,9 C 0,4 C 85 % 86 % 0 % 1006,9 hPa 0,0 l/m 1,9 km/h (1 Bft) O-NO 67 0 min 0,0 UV-I -7,4 C -4,9 C 2,1 km/h (1 Bft)
12.03.2013 01:35 -5,3 C 8,3 C -4,5 C -4,9 C -4,9 C 0,4 C 85 % 86 % 0 % 1006,9 hPa 0,0 l/m 1,8 km/h (1 Bft) O-NO 67 0 min 0,0 UV-I -7,4 C -4,9 C 1,8 km/h (1 Bft)
12.03.2013 01:40 -5,3 C 8,3 C -4,5 C -4,9 C -4,9 C 0,4 C 85 % 86 % 0 % 1006,9 hPa 0,0 l/m 2,1 km/h (1 Bft) O-NO 67 0 min 0,0 UV-I -7,4 C -4,9 C 2,3 km/h (1 Bft)
12.03.2013 01:45 -5,4 C 8,3 C -4,5 C -4,9 C -4,9 C 0,5 C 85 % 86 % 0 % 1006,9 hPa 0,0 l/m 1,6 km/h (1 Bft) O-NO 67 0 min 0,0 UV-I -7,5 C -4,9 C 2,1 km/h (1 Bft)
12.03.2013 01:50 -5,3 C 8,3 C -4,5 C -5,0 C -5,0 C 0,3 C 85 % 86 % 0 % 1006,9 hPa 0,0 l/m 1,4 km/h (1 Bft) O-NO 67 0 min 0,0 UV-I -7,4 C -5,0 C 3,1 km/h (1 Bft)
12.03.2013 01:55 -5,4 C 8,3 C -4,5 C -5,0 C -5,0 C 0,4 C 85 % 86 % 0 % 1007,1 hPa 0,0 l/m 1,4 km/h (1 Bft) O-NO 67 0 min 0,0 UV-I -7,5 C -5,0 C 1,6 km/h (1 Bft)
12.03.2013 02:00 -5,3 C 8,3 C -4,5 C -5,0 C -5,0 C 0,3 C 85 % 86 % 0 % 1007,1 hPa 0,0 l/m 1,1 km/h (1 Bft) O-NO 67 0 min 0,0 UV-I -7,4 C -5,0 C 1,8 km/h (1 Bft)
12.03.2013 02:05 -5,3 C 8,3 C -4,5 C -5,0 C -5,0 C 0,3 C 85 % 86 % 0 % 1007,1 hPa 0,0 l/m 0,8 km/h (0 Bft) O-NO 67 0 min 0,0 UV-I -7,4 C -5,0 C 1,8 km/h (1 Bft)
12.03.2013 02:10 -5,5 C 8,3 C -4,5 C -5,0 C -5,0 C 0,5 C 85 % 87 % 0 % 1007,1 hPa 0,0 l/m 0,8 km/h (0 Bft) O-NO 67 0 min 0,0 UV-I -7,6 C -5,0 C 1,6 km/h (1 Bft)
12.03.2013 02:15 -5,5 C 8,3 C -4,5 C -5,0 C -5,0 C 0,5 C 85 % 87 % 0 % 1006,5 hPa 0,0 l/m 0,3 km/h (0 Bft) O-NO 67 0 min 0,0 UV-I -7,6 C -5,0 C 1,9 km/h (1 Bft)
12.03.2013 02:20 -5,5 C 8,3 C -4,5 C -5,0 C -5,0 C 0,5 C 85 % 87 % 0 % 1006,5 hPa 0,0 l/m 0,5 km/h (0 Bft) O-NO 67 0 min 0,0 UV-I -7,6 C -5,0 C 0,0 km/h (0 Bft)
12.03.2013 02:25 -5,5 C 8,3 C -4,5 C -5,0 C -5,0 C 0,5 C 85 % 87 % 0 % 1006,5 hPa 0,0 l/m 1,3 km/h (1 Bft) O-NO 67 0 min 0,0 UV-I -7,6 C -5,0 C 1,9 km/h (1 Bft)
12.03.2013 02:30 -5,6 C 8,3 C -4,5 C -5,0 C -5,0 C 0,6 C 86 % 87 % 0 % 1006,5 hPa 0,0 l/m 1,1 km/h (1 Bft) O-NO 67 0 min 0,0 UV-I -7,6 C -5,0 C 0,0 km/h (0 Bft)
12.03.2013 02:35 -5,6 C 8,3 C -4,5 C -5,0 C -5,0 C 0,6 C 86 % 87 % 0 % 1006,4 hPa 0,0 l/m 0,5 km/h (0 Bft) O-NO 67 0 min 0,0 UV-I -7,6 C -5,0 C 0,0 km/h (0 Bft)
12.03.2013 02:40 -5,6 C 8,3 C -4,7 C -5,0 C -5,0 C 0,6 C 86 % 87 % 0 % 1006,4 hPa 0,0 l/m 1,0 km/h (0 Bft) O-NO 67 0 min 0,0 UV-I -7,6 C -5,0 C 3,2 km/h (1 Bft)
12.03.2013 02:45 -5,7 C 8,3 C -4,5 C -5,1 C -5,1 C 0,6 C 85 % 87 % 0 % 1006,4 hPa 0,0 l/m 1,3 km/h (1 Bft) O-NO 67 0 min 0,0 UV-I -7,8 C -5,1 C 2,7 km/h (1 Bft)
12.03.2013 02:50 -5,7 C 8,3 C -4,5 C -5,1 C -5,1 C 0,6 C 86 % 87 % 0 % 1006,4 hPa 0,0 l/m 1,0 km/h (0 Bft) O-NO 67 0 min 0,0 UV-I -7,7 C -5,1 C 2,3 km/h (1 Bft)
12.03.2013 02:55 -5,7 C 8,3 C -4,7 C -5,1 C -5,1 C 0,6 C 86 % 87 % 0 % 1006,1 hPa 0,0 l/m 1,0 km/h (0 Bft) O-NO 67 0 min 0,0 UV-I -7,7 C -5,1 C 1,8 km/h (1 Bft)
12.03.2013 03:00 -5,7 C 8,3 C -4,5 C -5,1 C -5,1 C 0,6 C 86 % 87 % 0 % 1006,1 hPa 0,0 l/m 1,1 km/h (1 Bft) O-NO 67 0 min 0,0 UV-I -7,7 C -5,1 C 0,0 km/h (0 Bft)
12.03.2013 03:05 -5,7 C 8,3 C -4,7 C -5,1 C -5,1 C 0,6 C 86 % 87 % 0 % 1006,1 hPa 0,0 l/m 0,8 km/h (0 Bft) O-NO 67 0 min 0,0 UV-I -7,7 C -5,1 C 0,0 km/h (0 Bft)
12.03.2013 03:10 -5,7 C 8,3 C -4,7 C -5,1 C -5,1 C 0,6 C 86 % 87 % 0 % 1006,1 hPa 0,0 l/m 0,6 km/h (0 Bft) O-NO 67 0 min 0,0 UV-I -7,7 C -5,1 C 2,3 km/h (1 Bft)
12.03.2013 03:15 -5,7 C 8,3 C -4,7 C -5,2 C -5,2 C 0,5 C 86 % 87 % 0 % 1006,2 hPa 0,0 l/m 0,5 km/h (0 Bft) O-NO 67 0 min 0,0 UV-I -7,7 C -5,2 C 1,8 km/h (1 Bft)
12.03.2013 03:20 -5,8 C 8,3 C -4,7 C -5,2 C -5,2 C 0,6 C 86 % 87 % 0 % 1006,2 hPa 0,0 l/m 0,8 km/h (0 Bft) O-NO 67 0 min 0,0 UV-I -7,8 C -5,2 C 0,0 km/h (0 Bft)
12.03.2013 03:25 -5,7 C 8,3 C -4,8 C -5,2 C -5,2 C 0,5 C 86 % 87 % 0 % 1006,2 hPa 0,0 l/m 1,0 km/h (0 Bft) O-NO 67 0 min 0,0 UV-I -7,7 C -5,2 C 2,6 km/h (1 Bft)
12.03.2013 03:30 -5,7 C 8,3 C -4,8 C -5,2 C -5,2 C 0,5 C 86 % 87 % 0 % 1006,2 hPa 0,0 l/m 0,8 km/h (0 Bft) O-NO 67 0 min 0,0 UV-I -7,7 C -5,2 C 0,0 km/h (0 Bft)
12.03.2013 03:35 -5,7 C 8,3 C -4,8 C -5,2 C -5,2 C 0,5 C 86 % 87 % 0 % 1006,2 hPa 0,0 l/m 1,1 km/h (1 Bft) O-NO 67 0 min 0,0 UV-I -7,7 C -5,2 C 0,0 km/h (0 Bft)
12.03.2013 03:40 -5,9 C 8,3 C -4,8 C -5,2 C -5,2 C 0,7 C 86 % 87 % 0 % 1006,2 hPa 0,0 l/m 1,0 km/h (0 Bft) O-NO 67 0 min 0,0 UV-I -7,9 C -5,2 C 2,1 km/h (1 Bft)
12.03.2013 03:45 -5,9 C 8,3 C -4,9 C -5,3 C -5,3 C 0,6 C 86 % 87 % 0 % 1006,2 hPa 0,0 l/m 1,3 km/h (1 Bft) O-NO 67 0 min 0,0 UV-I -7,9 C -5,3 C 0,0 km/h (0 Bft)
12.03.2013 03:50 -5,9 C 8,3 C -4,9 C -5,3 C -5,3 C 0,6 C 86 % 87 % 0 % 1006,2 hPa 0,0 l/m 1,4 km/h (1 Bft) O-NO 67 0 min 0,0 UV-I -7,9 C -5,3 C 6,1 km/h (2 Bft)
12.03.2013 03:55 -5,9 C 8,3 C -4,9 C -5,3 C -5,3 C 0,6 C 86 % 87 % 0 % 1005,8 hPa 0,0 l/m 1,0 km/h (0 Bft) O-NO 67 0 min 0,0 UV-I -7,9 C -5,3 C 3,9 km/h (1 Bft)
12.03.2013 04:00 -5,9 C 8,3 C -4,9 C -5,3 C -5,3 C 0,6 C 86 % 87 % 0 % 1005,8 hPa 0,0 l/m 1,3 km/h (1 Bft) O-NO 67 0 min 0,0 UV-I -7,9 C -5,3 C 2,3 km/h (1 Bft)
12.03.2013 04:05 -5,9 C 8,3 C -4,9 C -5,3 C -5,3 C 0,6 C 86 % 87 % 0 % 1005,8 hPa 0,0 l/m 1,8 km/h (1 Bft) O-NO 67 0 min 0,0 UV-I -7,9 C -5,3 C 0,0 km/h (0 Bft)
12.03.2013 04:10 -5,9 C 8,3 C -4,9 C -5,3 C -5,3 C 0,6 C 86 % 87 % 0 % 1005,8 hPa 0,0 l/m 1,8 km/h (1 Bft) O-NO 67 0 min 0,0 UV-I -7,9 C -5,3 C 2,7 km/h (1 Bft)
12.03.2013 04:15 -5,9 C 8,3 C -4,9 C -5,3 C -5,3 C 0,6 C 86 % 87 % 0 % 1005,9 hPa 0,0 l/m 1,1 km/h (1 Bft) O-NO 67 0 min 0,0 UV-I -7,9 C -5,3 C 0,0 km/h (0 Bft)
12.03.2013 04:20 -5,9 C 8,3 C -4,9 C -5,3 C -5,3 C 0,6 C 86 % 87 % 0 % 1005,9 hPa 0,0 l/m 1,4 km/h (1 Bft) O-NO 67 0 min 0,0 UV-I -7,9 C -5,3 C 1,9 km/h (1 Bft)
12.03.2013 04:25 -5,9 C 8,3 C -4,9 C -5,3 C -5,3 C 0,6 C 86 % 87 % 0 % 1005,9 hPa 0,0 l/m 1,1 km/h (1 Bft) O-NO 67 0 min 0,0 UV-I -7,9 C -5,3 C 2,7 km/h (1 Bft)
12.03.2013 04:30 -5,9 C 8,3 C -4,9 C -5,3 C -5,3 C 0,6 C 86 % 87 % 0 % 1005,9 hPa 0,0 l/m 1,1 km/h (1 Bft) O-NO 67 0 min 0,0 UV-I -7,9 C -5,3 C 0,0 km/h (0 Bft)
12.03.2013 04:35 -5,9 C 8,3 C -4,9 C -5,3 C -5,3 C 0,6 C 86 % 87 % 0 % 1005,6 hPa 0,0 l/m 1,6 km/h (1 Bft) O-NO 67 0 min 0,0 UV-I -7,9 C -5,3 C 0,0 km/h (0 Bft)
12.03.2013 04:40 -5,9 C 8,3 C -4,9 C -5,3 C -5,3 C 0,6 C 86 % 87 % 0 % 1005,6 hPa 0,0 l/m 1,3 km/h (1 Bft) O-NO 67 0 min 0,0 UV-I -7,9 C -5,3 C 0,0 km/h (0 Bft)
12.03.2013 04:45 -5,9 C 8,3 C -4,9 C -5,3 C -5,3 C 0,6 C 86 % 87 % 0 % 1005,6 hPa 0,0 l/m 1,8 km/h (1 Bft) O-NO 67 0 min 0,0 UV-I -7,9 C -5,3 C 4,5 km/h (1 Bft)
12.03.2013 04:50 -5,9 C 8,3 C -4,9 C -5,3 C -5,3 C 0,6 C 86 % 87 % 0 % 1005,6 hPa 0,0 l/m 2,1 km/h (1 Bft) O-NO 67 0 min 0,0 UV-I -7,9 C -5,3 C 3,7 km/h (1 Bft)
12.03.2013 04:55 -5,9 C 8,3 C -4,9 C -5,9 C -5,9 C 0,0 C 86 % 87 % 0 % 1005,3 hPa 0,0 l/m 2,6 km/h (1 Bft) O-NO 67 0 min 0,0 UV-I -7,9 C -5,9 C 2,3 km/h (1 Bft)
12.03.2013 05:00 -6,0 C 8,3 C -4,9 C -5,5 C -5,5 C 0,5 C 86 % 87 % 0 % 1005,3 hPa 0,0 l/m 2,3 km/h (1 Bft) O-NO 67 0 min 0,0 UV-I -8,0 C -5,5 C 2,1 km/h (1 Bft)
12.03.2013 05:05 -6,0 C 8,3 C -4,9 C -5,3 C -5,3 C 0,7 C 86 % 87 % 0 % 1005,3 hPa 0,0 l/m 1,6 km/h (1 Bft) O-NO 67 0 min 0,0 UV-I -8,0 C -5,3 C 1,6 km/h (1 Bft)
12.03.2013 05:10 -6,0 C 8,3 C -4,9 C -5,3 C -5,3 C 0,7 C 86 % 87 % 0 % 1005,3 hPa 0,0 l/m 2,1 km/h (1 Bft) O-NO 67 0 min 0,0 UV-I -8,0 C -5,3 C 3,1 km/h (1 Bft)
12.03.2013 05:15 -5,9 C 8,3 C -4,9 C -5,5 C -5,5 C 0,4 C 86 % 87 % 0 % 1005,2 hPa 0,0 l/m 2,3 km/h (1 Bft) O-NO 67 0 min 0,0 UV-I -7,9 C -5,5 C 2,3 km/h (1 Bft)
12.03.2013 05:20 -6,0 C 8,3 C -4,9 C -5,4 C -5,4 C 0,6 C 86 % 87 % 0 % 1005,2 hPa 0,0 l/m 1,6 km/h (1 Bft) O-NO 67 0 min 0,0 UV-I -8,0 C -5,4 C 2,7 km/h (1 Bft)
12.03.2013 05:25 -5,9 C 8,3 C -4,9 C -5,4 C -5,4 C 0,5 C 86 % 87 % 0 % 1005,2 hPa 0,0 l/m 1,9 km/h (1 Bft) O-NO 67 0 min 0,0 UV-I -7,9 C -5,4 C 1,9 km/h (1 Bft)
12.03.2013 05:30 -6,0 C 8,3 C -4,9 C -5,7 C -5,7 C 0,3 C 86 % 87 % 0 % 1005,2 hPa 0,0 l/m 2,3 km/h (1 Bft) O-NO 67 0 min 0,0 UV-I -8,0 C -5,7 C 2,9 km/h (1 Bft)
12.03.2013 05:35 -6,0 C 8,3 C -4,9 C -5,4 C -5,4 C 0,6 C 86 % 87 % 0 % 1005,8 hPa 0,0 l/m 1,9 km/h (1 Bft) O-NO 67 0 min 0,0 UV-I -8,0 C -5,4 C 2,7 km/h (1 Bft)
12.03.2013 05:40 -6,0 C 8,3 C -4,9 C -5,3 C -5,3 C 0,7 C 86 % 87 % 0 % 1005,8 hPa 0,0 l/m 1,8 km/h (1 Bft) O-NO 67 0 min 0,0 UV-I -8,0 C -5,3 C 3,1 km/h (1 Bft)
12.03.2013 05:45 -5,9 C 8,3 C -5,0 C -5,3 C -5,3 C 0,6 C 86 % 87 % 0 % 1005,8 hPa 0,0 l/m 1,4 km/h (1 Bft) O-NO 67 0 min 0,0 UV-I -7,9 C -5,3 C 1,9 km/h (1 Bft)
12.03.2013 05:50 -5,9 C 8,3 C -4,9 C -5,4 C -5,4 C 0,5 C 86 % 87 % 0 % 1005,8 hPa 0,0 l/m 1,1 km/h (1 Bft) O-NO 67 0 min 0,0 UV-I -7,9 C -5,4 C 0,0 km/h (0 Bft)
12.03.2013 05:55 -5,9 C 8,3 C -4,9 C -5,4 C -5,4 C 0,5 C 86 % 87 % 0 % 1005,0 hPa 0,0 l/m 1,6 km/h (1 Bft) O-NO 67 0 min 0,0 UV-I -7,9 C -5,4 C 2,1 km/h (1 Bft)
12.03.2013 06:00 -6,1 C 8,3 C -4,9 C -5,4 C -5,4 C 0,7 C 86 % 88 % 0 % 1005,0 hPa 0,0 l/m 1,9 km/h (1 Bft) O-NO 67 0 min 0,0 UV-I -8,0 C -5,4 C 3,9 km/h (1 Bft)
12.03.2013 06:05 -6,1 C 8,3 C -4,9 C -6,0 C -6,0 C 0,1 C 86 % 88 % 0 % 1005,0 hPa 0,0 l/m 2,6 km/h (1 Bft) O-NO 67 0 min 0,0 UV-I -8,0 C -6,0 C 4,2 km/h (1 Bft)
12.03.2013 06:10 -6,1 C 8,3 C -4,9 C -6,2 C -6,4 C 0,0 C 86 % 88 % 0 % 1005,0 hPa 0,0 l/m 3,1 km/h (1 Bft) O-NO 67 0 min 0,0 UV-I -8,0 C -6,4 C 3,2 km/h (1 Bft)
12.03.2013 06:15 -6,1 C 8,3 C -4,9 C -5,4 C -5,4 C 0,7 C 86 % 88 % 0 % 1005,2 hPa 0,0 l/m 1,6 km/h (1 Bft) O-NO 67 0 min 0,0 UV-I -8,0 C -5,4 C 0,0 km/h (0 Bft)
12.03.2013 06:20 -6,1 C 8,3 C -4,9 C -5,4 C -5,4 C 0,7 C 86 % 88 % 0 % 1005,2 hPa 0,0 l/m 1,1 km/h (1 Bft) O-NO 67 0 min 0,0 UV-I -8,0 C -5,4 C 2,3 km/h (1 Bft)
12.03.2013 06:25 -6,1 C 8,3 C -4,9 C -5,4 C -5,4 C 0,7 C 86 % 88 % 0 % 1005,2 hPa 0,0 l/m 1,4 km/h (1 Bft) O-NO 67 0 min 0,0 UV-I -8,0 C -5,4 C 2,3 km/h (1 Bft)
12.03.2013 06:30 -6,1 C 8,3 C -4,9 C -5,4 C -5,4 C 0,7 C 87 % 88 % 0 % 1005,2 hPa 0,0 l/m 1,6 km/h (1 Bft) O-NO 67 0 min 0,0 UV-I -7,9 C -5,4 C 2,1 km/h (1 Bft)
12.03.2013 06:35 -6,1 C 8,3 C -4,9 C -5,3 C -5,3 C 0,8 C 86 % 88 % 0 % 1005,1 hPa 0,0 l/m 0,8 km/h (0 Bft) O-NO 67 0 min 0,0 UV-I -8,0 C -5,3 C 2,1 km/h (1 Bft)
12.03.2013 06:41 -6,1 C 8,3 C -4,9 C -5,3 C -5,3 C 0,8 C 86 % 88 % 21 % 1005,1 hPa 0,0 l/m 1,0 km/h (0 Bft) N 0 6 min 0,0 UV-I -8,0 C -5,3 C 3,4 km/h (1 Bft)
12.03.2013 07:00 -6,1 C 8,3 C -4,9 C -5,2 C -5,2 C 0,9 C 87 % 88 % 24 % 1005,2 hPa 0,0 l/m 1,8 km/h (1 Bft) O-NO 67 19 min 0,0 UV-I -7,9 C -5,2 C 2,9 km/h (1 Bft)
12.03.2013 07:05 -6,1 C 8,3 C -4,9 C -5,2 C -5,2 C 0,9 C 87 % 88 % 24 % 1005,2 hPa 0,0 l/m 2,1 km/h (1 Bft) O-NO 67 5 min 0,0 UV-I -7,9 C -5,2 C 5,0 km/h (1 Bft)
12.03.2013 07:10 -6,1 C 8,3 C -4,7 C -5,0 C -5,0 C 1,1 C 87 % 88 % 29 % 1005,2 hPa 0,0 l/m 1,8 km/h (1 Bft) O-NO 67 5 min 0,0 UV-I -7,9 C -5,0 C 2,3 km/h (1 Bft)
12.03.2013 07:15 -5,9 C 8,3 C -4,5 C -4,9 C -4,9 C 1,0 C 87 % 88 % 26 % 1005,4 hPa 0,0 l/m 1,8 km/h (1 Bft) O-NO 67 0 min 0,0 UV-I -7,7 C -4,9 C 4,7 km/h (1 Bft)
12.03.2013 07:20 -6,0 C 8,3 C -4,5 C -4,8 C -4,8 C 1,2 C 87 % 87 % 32 % 1005,4 hPa 0,0 l/m 1,6 km/h (1 Bft) O-NO 67 5 min 0,0 UV-I -7,8 C -4,8 C 1,8 km/h (1 Bft)
12.03.2013 07:25 -6,0 C 8,3 C -4,5 C -4,7 C -4,7 C 1,3 C 87 % 87 % 34 % 1005,4 hPa 0,0 l/m 1,6 km/h (1 Bft) O-NO 67 0 min 0,0 UV-I -7,8 C -4,7 C 2,3 km/h (1 Bft)
12.03.2013 07:30 -5,9 C 8,3 C -4,4 C -4,7 C -4,7 C 1,2 C 87 % 87 % 32 % 1005,4 hPa 0,0 l/m 1,8 km/h (1 Bft) O-NO 67 0 min 0,0 UV-I -7,7 C -4,7 C 3,1 km/h (1 Bft)
12.03.2013 07:35 -5,9 C 8,3 C -4,3 C -4,4 C -4,4 C 1,5 C 87 % 88 % 39 % 1005,1 hPa 0,0 l/m 1,4 km/h (1 Bft) O-NO 67 0 min 0,0 UV-I -7,7 C -4,4 C 1,6 km/h (1 Bft)
12.03.2013 07:40 -5,7 C 8,3 C -4,3 C -4,4 C -4,4 C 1,3 C 87 % 88 % 34 % 1005,1 hPa 0,0 l/m 1,0 km/h (0 Bft) O-NO 67 0 min 0,0 UV-I -7,5 C -4,4 C 7,7 km/h (2 Bft)
12.03.2013 07:45 -5,7 C 8,2 C -4,4 C -4,4 C -4,4 C 1,3 C 87 % 87 % 34 % 1005,1 hPa 0,0 l/m 1,0 km/h (0 Bft) O-NO 67 0 min 0,0 UV-I -7,5 C -4,4 C 1,6 km/h (1 Bft)
12.03.2013 07:50 -5,7 C 8,3 C -4,3 C -4,5 C -4,5 C 1,2 C 87 % 87 % 32 % 1005,1 hPa 0,0 l/m 1,4 km/h (1 Bft) O-NO 67 0 min 0,0 UV-I -7,5 C -4,5 C 3,4 km/h (1 Bft)
12.03.2013 07:55 -5,7 C 8,2 C -4,3 C -4,4 C -4,4 C 1,3 C 87 % 87 % 34 % 1005,8 hPa 0,0 l/m 1,3 km/h (1 Bft) O-NO 67 0 min 0,0 UV-I -7,5 C -4,4 C 0,0 km/h (0 Bft)
12.03.2013 08:00 -5,7 C 8,2 C -4,1 C -4,4 C -4,4 C 1,3 C 87 % 87 % 34 % 1005,8 hPa 0,0 l/m 1,3 km/h (1 Bft) O-NO 67 0 min 0,0 UV-I -7,5 C -4,4 C 0,0 km/h (0 Bft)
12.03.2013 08:05 -5,7 C 8,2 C -4,1 C -4,3 C -4,3 C 1,4 C 87 % 87 % 37 % 1005,8 hPa 0,0 l/m 1,8 km/h (1 Bft) O-NO 67 0 min 0,0 UV-I -7,5 C -4,3 C 2,7 km/h (1 Bft)
12.03.2013 08:10 -5,7 C 8,2 C -4,1 C -4,2 C -4,2 C 1,5 C 87 % 87 % 39 % 1005,8 hPa 0,0 l/m 1,4 km/h (1 Bft) O-NO 67 0 min 0,0 UV-I -7,5 C -4,2 C 0,0 km/h (0 Bft)
12.03.2013 08:15 -5,7 C 8,2 C -3,9 C -3,9 C -3,9 C 1,8 C 87 % 87 % 47 % 1005,6 hPa 0,0 l/m 1,1 km/h (1 Bft) O-NO 67 0 min 0,0 UV-I -7,5 C -3,9 C 1,9 km/h (1 Bft)
12.03.2013 08:20 -5,7 C 8,2 C -3,9 C -3,8 C -3,8 C 1,9 C 86 % 87 % 50 % 1005,6 hPa 0,0 l/m 1,8 km/h (1 Bft) O-NO 67 0 min 0,0 UV-I -7,7 C -3,8 C 4,0 km/h (1 Bft)
12.03.2013 08:25 -5,6 C 8,2 C -3,7 C -3,6 C -3,6 C 2,0 C 87 % 86 % 53 % 1005,6 hPa 0,0 l/m 2,1 km/h (1 Bft) O-NO 67 0 min 0,0 UV-I -7,4 C -3,6 C 7,4 km/h (2 Bft)
12.03.2013 08:30 -5,6 C 8,2 C -3,7 C -3,6 C -3,6 C 2,0 C 87 % 86 % 53 % 1005,6 hPa 0,0 l/m 1,9 km/h (1 Bft) O-NO 67 0 min 0,0 UV-I -7,4 C -3,6 C 3,9 km/h (1 Bft)
12.03.2013 08:35 -5,6 C 8,2 C -3,7 C -4,2 C -4,2 C 1,4 C 87 % 86 % 37 % 1005,6 hPa 0,0 l/m 2,7 km/h (1 Bft) O-NO 67 0 min 0,0 UV-I -7,4 C -4,2 C 4,8 km/h (1 Bft)
12.03.2013 08:40 -5,6 C 8,2 C -3,7 C -4,2 C -4,2 C 1,4 C 87 % 86 % 37 % 1005,6 hPa 0,0 l/m 2,7 km/h (1 Bft) O-NO 67 0 min 0,0 UV-I -7,4 C -4,2 C 3,5 km/h (1 Bft)
12.03.2013 08:45 -5,3 C 8,2 C -3,3 C -4,1 C -4,1 C 1,2 C 87 % 85 % 32 % 1005,6 hPa 0,0 l/m 3,1 km/h (1 Bft) O-NO 67 0 min 0,0 UV-I -7,1 C -4,1 C 4,3 km/h (1 Bft)
12.03.2013 08:50 -5,5 C 8,2 C -3,1 C -3,8 C -3,8 C 1,7 C 87 % 85 % 45 % 1005,6 hPa 0,0 l/m 3,1 km/h (1 Bft) O-NO 67 0 min 0,0 UV-I -7,3 C -3,8 C 2,6 km/h (1 Bft)
12.03.2013 08:55 -5,3 C 8,2 C -3,1 C -3,4 C -3,4 C 1,9 C 87 % 85 % 50 % 1005,1 hPa 0,0 l/m 2,9 km/h (1 Bft) O-NO 67 0 min 0,0 UV-I -7,1 C -3,4 C 3,2 km/h (1 Bft)
12.03.2013 09:00 -5,3 C 8,2 C -3,2 C -3,4 C -3,4 C 1,9 C 87 % 84 % 50 % 1005,1 hPa 0,0 l/m 2,9 km/h (1 Bft) O-NO 67 0 min 0,0 UV-I -7,1 C -3,4 C 2,6 km/h (1 Bft)
12.03.2013 09:05 -5,3 C 8,2 C -3,2 C -3,3 C -3,3 C 2,0 C 86 % 84 % 53 % 1005,1 hPa 0,0 l/m 2,7 km/h (1 Bft) O-NO 67 0 min 0,0 UV-I -7,3 C -3,3 C 4,0 km/h (1 Bft)
12.03.2013 09:10 -5,3 C 8,2 C -3,1 C -3,1 C -3,1 C 2,2 C 86 % 84 % 58 % 1005,1 hPa 0,0 l/m 2,6 km/h (1 Bft) O-NO 67 0 min 0,0 UV-I -7,3 C -3,1 C 3,7 km/h (1 Bft)
12.03.2013 09:15 -5,1 C 8,2 C -2,9 C -3,2 C -3,2 C 1,9 C 86 % 84 % 50 % 1005,6 hPa 0,0 l/m 2,9 km/h (1 Bft) O-NO 67 0 min 0,0 UV-I -7,1 C -3,2 C 2,7 km/h (1 Bft)
12.03.2013 09:20 -5,2 C 8,2 C -2,9 C -3,0 C -3,0 C 2,2 C 86 % 84 % 58 % 1005,6 hPa 0,0 l/m 2,7 km/h (1 Bft) O-NO 67 0 min 0,0 UV-I -7,2 C -3,0 C 3,2 km/h (1 Bft)
12.03.2013 09:25 -5,2 C 8,2 C -2,9 C -2,7 C -2,7 C 2,5 C 86 % 83 % 66 % 1005,6 hPa 0,0 l/m 2,6 km/h (1 Bft) O-NO 67 0 min 0,0 UV-I -7,2 C -2,7 C 3,7 km/h (1 Bft)
12.03.2013 09:30 -5,1 C 8,2 C -3,0 C -3,3 C -3,3 C 1,8 C 86 % 83 % 47 % 1005,6 hPa 0,0 l/m 3,1 km/h (1 Bft) O-NO 67 0 min 0,0 UV-I -7,1 C -3,3 C 3,7 km/h (1 Bft)
12.03.2013 09:35 -5,2 C 8,2 C -2,9 C -3,3 C -3,3 C 1,9 C 86 % 83 % 50 % 1005,5 hPa 0,0 l/m 2,9 km/h (1 Bft) O-NO 67 0 min 0,0 UV-I -7,2 C -3,3 C 2,7 km/h (1 Bft)
12.03.2013 09:40 -5,2 C 8,2 C -2,9 C -3,0 C -3,0 C 2,2 C 86 % 83 % 58 % 1005,5 hPa 0,0 l/m 2,6 km/h (1 Bft) O-NO 67 0 min 0,0 UV-I -7,2 C -3,0 C 3,1 km/h (1 Bft)
12.03.2013 09:45 -5,1 C 8,2 C -2,7 C -2,4 C -2,4 C 2,7 C 86 % 83 % 71 % 1005,5 hPa 0,0 l/m 2,1 km/h (1 Bft) O-NO 67 0 min 0,0 UV-I -7,1 C -2,4 C 2,6 km/h (1 Bft)
12.03.2013 09:50 -5,1 C 8,2 C -2,5 C -2,2 C -2,2 C 2,9 C 86 % 83 % 76 % 1005,5 hPa 0,0 l/m 1,8 km/h (1 Bft) O-NO 67 0 min 0,0 UV-I -7,1 C -2,2 C 0,0 km/h (0 Bft)
12.03.2013 09:55 -4,9 C 8,2 C -2,4 C -1,9 C -1,9 C 3,0 C 86 % 83 % 79 % 1005,5 hPa 0,0 l/m 2,4 km/h (1 Bft) O-NO 67 0 min 0,0 UV-I -6,9 C -1,9 C 3,4 km/h (1 Bft)
12.03.2013 10:00 -4,9 C 8,1 C -2,2 C -1,9 C -1,9 C 3,0 C 86 % 83 % 79 % 1005,5 hPa 0,0 l/m 2,7 km/h (1 Bft) O-NO 67 0 min 0,0 UV-I -6,9 C -1,9 C 3,9 km/h (1 Bft)
12.03.2013 10:05 -4,9 C 8,1 C -2,1 C -1,7 C -1,7 C 3,2 C 86 % 81 % 84 % 1005,5 hPa 0,0 l/m 2,9 km/h (1 Bft) O-NO 67 0 min 0,0 UV-I -6,9 C -1,7 C 5,0 km/h (1 Bft)
12.03.2013 10:10 -4,9 C 8,1 C -2,1 C -2,4 C -2,4 C 2,5 C 85 % 81 % 66 % 1005,5 hPa 0,0 l/m 3,7 km/h (1 Bft) O-NO 67 0 min 0,0 UV-I -7,0 C -2,4 C 5,8 km/h (2 Bft)
12.03.2013 10:15 -4,9 C 8,1 C -2,3 C -3,2 C -3,2 C 1,7 C 85 % 81 % 45 % 1005,2 hPa 0,0 l/m 4,3 km/h (1 Bft) O-NO 67 0 min 0,0 UV-I -7,0 C -3,2 C 3,9 km/h (1 Bft)
12.03.2013 10:20 -4,9 C 8,1 C -2,3 C -3,1 C -3,1 C 1,8 C 85 % 81 % 47 % 1005,2 hPa 0,0 l/m 4,2 km/h (1 Bft) O-NO 67 0 min 0,0 UV-I -7,0 C -3,1 C 5,3 km/h (1 Bft)
12.03.2013 10:25 -4,9 C 8,1 C -2,1 C -2,9 C -2,9 C 2,0 C 85 % 81 % 53 % 1005,2 hPa 0,0 l/m 3,7 km/h (1 Bft) O-NO 67 0 min 0,0 UV-I -7,0 C -2,9 C 9,0 km/h (2 Bft)
12.03.2013 10:30 -4,9 C 8,1 C -2,1 C -2,6 C -2,6 C 2,3 C 86 % 81 % 61 % 1005,2 hPa 0,0 l/m 3,5 km/h (1 Bft) O-NO 67 0 min 0,0 UV-I -6,9 C -2,6 C 2,9 km/h (1 Bft)
12.03.2013 10:35 -4,9 C 8,1 C -2,1 C -2,0 C -2,0 C 2,9 C 86 % 81 % 76 % 1005,8 hPa 0,0 l/m 2,9 km/h (1 Bft) O-NO 67 0 min 0,0 UV-I -6,9 C -2,0 C 5,3 km/h (1 Bft)
12.03.2013 10:40 -4,8 C 8,1 C -2,1 C -1,9 C -1,9 C 2,9 C 85 % 81 % 76 % 1005,8 hPa 0,0 l/m 2,7 km/h (1 Bft) O-NO 67 0 min 0,0 UV-I -6,9 C -1,9 C 3,5 km/h (1 Bft)
12.03.2013 10:45 -4,7 C 8,0 C -2,1 C -2,1 C -2,1 C 2,6 C 85 % 80 % 68 % 1005,8 hPa 0,0 l/m 3,1 km/h (1 Bft) O-NO 67 0 min 0,0 UV-I -6,8 C -2,1 C 5,8 km/h (2 Bft)
12.03.2013 10:50 -4,7 C 8,1 C -2,1 C -2,0 C -2,0 C 2,7 C 85 % 80 % 71 % 1005,8 hPa 0,0 l/m 2,9 km/h (1 Bft) O-NO 67 0 min 0,0 UV-I -6,8 C -2,0 C 2,7 km/h (1 Bft)
12.03.2013 10:55 -4,5 C 8,0 C -2,1 C -1,7 C -1,7 C 2,8 C 85 % 80 % 74 % 1005,5 hPa 0,0 l/m 2,6 km/h (1 Bft) O-NO 67 0 min 0,0 UV-I -6,6 C -1,7 C 4,3 km/h (1 Bft)
12.03.2013 11:00 -4,6 C 8,0 C -2,1 C -1,6 C -1,6 C 3,0 C 85 % 80 % 79 % 1005,5 hPa 0,0 l/m 2,3 km/h (1 Bft) O-NO 67 0 min 0,0 UV-I -6,7 C -1,6 C 0,0 km/h (0 Bft)
12.03.2013 11:05 -4,5 C 8,0 C -2,1 C -2,3 C -2,3 C 2,2 C 84 % 80 % 58 % 1005,5 hPa 0,0 l/m 2,9 km/h (1 Bft) O-NO 67 0 min 0,0 UV-I -6,8 C -2,3 C 2,7 km/h (1 Bft)
12.03.2013 11:10 -4,5 C 8,0 C -2,3 C -2,6 C -2,6 C 1,9 C 84 % 80 % 50 % 1005,5 hPa 0,0 l/m 3,1 km/h (1 Bft) O-NO 67 0 min 0,0 UV-I -6,8 C -2,6 C 6,4 km/h (2 Bft)
12.03.2013 11:15 -4,5 C 8,0 C -2,2 C -2,2 C -2,2 C 2,3 C 84 % 80 % 61 % 1005,3 hPa 0,0 l/m 2,7 km/h (1 Bft) O-NO 67 0 min 0,0 UV-I -6,8 C -2,2 C 5,6 km/h (1 Bft)
12.03.2013 11:20 -4,5 C 8,0 C -2,1 C -1,9 C -1,9 C 2,6 C 84 % 80 % 68 % 1005,3 hPa 0,0 l/m 2,4 km/h (1 Bft) O-NO 67 0 min 0,0 UV-I -6,8 C -1,9 C 1,9 km/h (1 Bft)
12.03.2013 11:25 -4,4 C 8,0 C -2,1 C -2,2 C -2,2 C 2,2 C 84 % 80 % 58 % 1005,3 hPa 0,0 l/m 2,7 km/h (1 Bft) O-NO 67 0 min 0,0 UV-I -6,7 C -2,2 C 4,5 km/h (1 Bft)
12.03.2013 11:30 -4,3 C 8,0 C -2,1 C -2,2 C -2,2 C 2,1 C 83 % 80 % 55 % 1005,3 hPa 0,0 l/m 2,6 km/h (1 Bft) O-NO 67 0 min 0,0 UV-I -6,7 C -2,2 C 3,7 km/h (1 Bft)
12.03.2013 11:35 -4,3 C 8,0 C -2,1 C -2,6 C -2,6 C 1,7 C 83 % 80 % 45 % 1005,1 hPa 0,0 l/m 3,1 km/h (1 Bft) O-NO 67 0 min 0,0 UV-I -6,7 C -2,6 C 4,3 km/h (1 Bft)
12.03.2013 11:40 -4,3 C 8,0 C -2,1 C -3,0 C -3,0 C 1,3 C 83 % 80 % 34 % 1005,1 hPa 0,0 l/m 3,5 km/h (1 Bft) O-NO 67 0 min 0,0 UV-I -6,7 C -3,0 C 4,2 km/h (1 Bft)
12.03.2013 11:45 -4,3 C 8,0 C -2,1 C -3,2 C -3,2 C 1,1 C 83 % 80 % 29 % 1005,1 hPa 0,0 l/m 3,9 km/h (1 Bft) O-NO 67 0 min 0,0 UV-I -6,7 C -3,2 C 5,6 km/h (1 Bft)
12.03.2013 11:50 -4,4 C 8,0 C -2,5 C -3,6 C -3,6 C 0,8 C 83 % 79 % 21 % 1005,1 hPa 0,0 l/m 4,0 km/h (1 Bft) O-NO 67 0 min 0,0 UV-I -6,8 C -3,6 C 4,0 km/h (1 Bft)
12.03.2013 11:55 -4,4 C 8,0 C -2,5 C -3,8 C -3,8 C 0,6 C 83 % 80 % 16 % 1005,4 hPa 0,0 l/m 4,0 km/h (1 Bft) O-NO 67 0 min 0,0 UV-I -6,8 C -3,8 C 4,2 km/h (1 Bft)
12.03.2013 12:00 -4,3 C 8,0 C -2,5 C -3,3 C -3,3 C 1,0 C 83 % 80 % 26 % 1005,4 hPa 0,0 l/m 3,4 km/h (1 Bft) O-NO 67 0 min 0,0 UV-I -6,7 C -3,3 C 2,3 km/h (1 Bft)
12.03.2013 12:05 -4,4 C 8,0 C -2,3 C -2,8 C -2,8 C 1,6 C 83 % 80 % 42 % 1005,4 hPa 0,0 l/m 2,9 km/h (1 Bft) O-NO 67 0 min 0,0 UV-I -6,8 C -2,8 C 4,0 km/h (1 Bft)
12.03.2013 12:10 -4,3 C 8,0 C -2,1 C -2,3 C -2,3 C 2,0 C 83 % 80 % 53 % 1005,4 hPa 0,0 l/m 2,7 km/h (1 Bft) O-NO 67 0 min 0,0 UV-I -6,7 C -2,3 C 3,4 km/h (1 Bft)
12.03.2013 12:15 -4,3 C 8,0 C -2,3 C -3,2 C -3,2 C 1,1 C 83 % 80 % 29 % 1005,2 hPa 0,0 l/m 3,9 km/h (1 Bft) O-NO 67 0 min 0,0 UV-I -6,7 C -3,2 C 9,0 km/h (2 Bft)
12.03.2013 12:20 -4,5 C 8,0 C -2,3 C -3,8 C -3,8 C 0,7 C 83 % 80 % 18 % 1005,2 hPa 0,0 l/m 4,7 km/h (1 Bft) O-NO 67 0 min 0,0 UV-I -6,9 C -5,7 C 5,5 km/h (1 Bft)
12.03.2013 12:25 -4,5 C 8,0 C -2,1 C -4,0 C -4,0 C 0,5 C 83 % 80 % 13 % 1005,2 hPa 0,0 l/m 5,3 km/h (1 Bft) O-NO 67 0 min 0,0 UV-I -6,9 C -6,3 C 11,3 km/h (2 Bft)
12.03.2013 12:30 -4,4 C 8,0 C -2,0 C -3,5 C -3,5 C 0,9 C 83 % 80 % 24 % 1005,2 hPa 0,0 l/m 4,8 km/h (1 Bft) O-NO 67 0 min 0,0 UV-I -6,8 C -5,5 C 4,8 km/h (1 Bft)
12.03.2013 12:35 -4,3 C 8,0 C -1,8 C -2,4 C -2,4 C 1,9 C 83 % 80 % 50 % 1004,8 hPa 0,0 l/m 3,9 km/h (1 Bft) O-NO 67 0 min 0,0 UV-I -6,7 C -2,4 C 6,9 km/h (2 Bft)
12.03.2013 12:46 -4,3 C 8,0 C -1,6 C -2,2 C -2,2 C 2,1 C 83 % 79 % 55 % 1004,8 hPa 0,0 l/m 4,0 km/h (1 Bft) N 0 0 min 0,0 UV-I -6,7 C -2,2 C 3,1 km/h (1 Bft)
12.03.2013 13:00 -4,2 C 8,0 C -1,5 C -2,1 C -2,1 C 2,1 C 83 % 78 % 55 % 1004,4 hPa 0,0 l/m 4,3 km/h (1 Bft) O-NO 67 0 min 0,0 UV-I -6,6 C -2,1 C 8,0 km/h (2 Bft)
12.03.2013 13:05 -4,2 C 8,0 C -1,5 C -2,3 C -2,3 C 1,9 C 83 % 78 % 50 % 1004,4 hPa 0,0 l/m 4,7 km/h (1 Bft) O-NO 67 0 min 0,0 UV-I -6,6 C -4,0 C 6,0 km/h (2 Bft)
12.03.2013 13:10 -4,1 C 8,0 C -1,5 C -2,4 C -2,4 C 1,7 C 83 % 78 % 45 % 1004,4 hPa 0,0 l/m 4,7 km/h (1 Bft) O-NO 67 0 min 0,0 UV-I -6,5 C -4,2 C 3,4 km/h (1 Bft)
12.03.2013 13:15 -4,1 C 8,0 C -1,5 C -1,8 C -1,8 C 2,3 C 83 % 78 % 61 % 1004,7 hPa 0,0 l/m 3,9 km/h (1 Bft) O-NO 67 0 min 0,0 UV-I -6,5 C -1,8 C 3,5 km/h (1 Bft)
12.03.2013 13:20 -4,0 C 8,0 C -1,5 C -1,7 C -1,7 C 2,3 C 83 % 78 % 61 % 1004,7 hPa 0,0 l/m 3,5 km/h (1 Bft) O-NO 67 0 min 0,0 UV-I -6,4 C -1,7 C 5,1 km/h (1 Bft)
12.03.2013 13:25 -3,9 C 8,0 C -1,3 C -1,5 C -1,5 C 2,4 C 82 % 78 % 63 % 1004,7 hPa 0,0 l/m 3,4 km/h (1 Bft) O-NO 67 0 min 0,0 UV-I -6,5 C -1,5 C 4,3 km/h (1 Bft)
12.03.2013 13:30 -3,7 C 8,0 C -1,3 C -1,4 C -1,4 C 2,3 C 82 % 78 % 61 % 1004,7 hPa 0,0 l/m 3,2 km/h (1 Bft) O-NO 67 0 min 0,0 UV-I -6,3 C -1,4 C 6,6 km/h (2 Bft)
12.03.2013 13:35 -3,7 C 8,0 C -1,7 C -2,3 C -2,3 C 1,4 C 81 % 77 % 37 % 1004,8 hPa 0,0 l/m 4,0 km/h (1 Bft) O-NO 67 0 min 0,0 UV-I -6,5 C -2,3 C 3,2 km/h (1 Bft)
12.03.2013 13:40 -3,8 C 8,0 C -1,5 C -2,2 C -2,2 C 1,6 C 81 % 78 % 42 % 1004,8 hPa 0,0 l/m 4,0 km/h (1 Bft) O-NO 67 0 min 0,0 UV-I -6,6 C -2,2 C 6,9 km/h (2 Bft)
12.03.2013 13:45 -3,7 C 8,0 C -1,3 C -2,1 C -2,1 C 1,6 C 81 % 77 % 42 % 1004,8 hPa 0,0 l/m 4,0 km/h (1 Bft) O-NO 67 0 min 0,0 UV-I -6,5 C -2,1 C 5,8 km/h (2 Bft)
12.03.2013 13:50 -3,7 C 8,0 C -1,5 C -2,3 C -2,3 C 1,4 C 81 % 78 % 37 % 1004,8 hPa 0,0 l/m 4,3 km/h (1 Bft) O-NO 67 0 min 0,0 UV-I -6,5 C -2,3 C 3,7 km/h (1 Bft)
12.03.2013 13:55 -3,7 C 8,0 C -1,5 C -2,8 C -2,8 C 0,9 C 81 % 77 % 24 % 1004,2 hPa 0,0 l/m 4,8 km/h (1 Bft) O-NO 67 0 min 0,0 UV-I -6,5 C -4,7 C 9,8 km/h (2 Bft)
12.03.2013 14:00 -3,8 C 8,0 C -1,9 C -3,2 C -3,2 C 0,6 C 80 % 77 % 16 % 1004,2 hPa 0,0 l/m 5,1 km/h (1 Bft) O-NO 67 0 min 0,0 UV-I -6,7 C -5,3 C 3,5 km/h (1 Bft)
12.03.2013 14:05 -3,7 C 8,0 C -1,8 C -3,2 C -3,2 C 0,5 C 81 % 78 % 13 % 1004,2 hPa 0,0 l/m 4,8 km/h (1 Bft) O-NO 67 0 min 0,0 UV-I -6,5 C -5,1 C 4,7 km/h (1 Bft)
12.03.2013 14:10 -3,7 C 8,0 C -1,7 C -2,8 C -2,8 C 0,9 C 81 % 78 % 24 % 1004,2 hPa 0,0 l/m 4,3 km/h (1 Bft) O-NO 67 0 min 0,0 UV-I -6,5 C -2,8 C 7,1 km/h (2 Bft)
12.03.2013 14:15 -3,7 C 8,0 C -1,9 C -3,1 C -3,1 C 0,6 C 81 % 78 % 16 % 1004,2 hPa 0,0 l/m 4,7 km/h (1 Bft) O-NO 67 0 min 0,0 UV-I -6,5 C -4,9 C 4,8 km/h (1 Bft)
12.03.2013 14:20 -3,8 C 8,0 C -2,1 C -3,6 C -3,6 C 0,2 C 81 % 78 % 5 % 1004,2 hPa 0,0 l/m 5,1 km/h (1 Bft) O-NO 67 0 min 0,0 UV-I -6,6 C -5,7 C 8,0 km/h (2 Bft)
12.03.2013 14:25 -3,7 C 8,0 C -1,9 C -3,5 C -3,5 C 0,2 C 81 % 79 % 5 % 1004,2 hPa 0,0 l/m 4,8 km/h (1 Bft) O-NO 67 0 min 0,0 UV-I -6,5 C -5,5 C 5,0 km/h (1 Bft)
12.03.2013 14:30 -3,9 C 8,0 C -2,1 C -3,6 C -3,6 C 0,3 C 81 % 79 % 8 % 1004,2 hPa 0,0 l/m 4,7 km/h (1 Bft) O-NO 67 0 min 0,0 UV-I -6,7 C -5,5 C 4,5 km/h (1 Bft)
12.03.2013 14:35 -3,9 C 8,0 C -2,1 C -3,7 C -3,7 C 0,2 C 81 % 79 % 5 % 1004,5 hPa 0,0 l/m 4,5 km/h (1 Bft) O-NO 67 0 min 0,0 UV-I -6,7 C -3,7 C 5,1 km/h (1 Bft)
12.03.2013 14:40 -4,0 C 8,0 C -2,3 C -3,6 C -3,6 C 0,4 C 82 % 80 % 11 % 1004,5 hPa 0,0 l/m 4,0 km/h (1 Bft) O-NO 67 0 min 0,0 UV-I -6,6 C -3,6 C 2,9 km/h (1 Bft)
12.03.2013 14:45 -4,1 C 8,0 C -2,3 C -3,8 C -3,8 C 0,3 C 82 % 80 % 8 % 1004,5 hPa 0,0 l/m 4,3 km/h (1 Bft) O-NO 67 0 min 0,0 UV-I -6,7 C -3,8 C 5,3 km/h (1 Bft)
12.03.2013 14:50 -4,1 C 8,0 C -2,3 C -3,8 C -3,8 C 0,3 C 83 % 80 % 8 % 1004,5 hPa 0,0 l/m 4,3 km/h (1 Bft) O-NO 67 0 min 0,0 UV-I -6,5 C -3,8 C 5,5 km/h (1 Bft)
12.03.2013 14:55 -4,1 C 8,0 C -2,4 C -3,6 C -3,6 C 0,5 C 83 % 80 % 13 % 1004,0 hPa 0,0 l/m 4,0 km/h (1 Bft) O-NO 67 0 min 0,0 UV-I -6,5 C -3,6 C 5,1 km/h (1 Bft)
12.03.2013 15:00 -4,1 C 8,0 C -2,5 C -3,7 C -3,7 C 0,4 C 83 % 81 % 11 % 1004,0 hPa 0,0 l/m 4,0 km/h (1 Bft) O-NO 67 0 min 0,0 UV-I -6,5 C -3,7 C 4,8 km/h (1 Bft)
12.03.2013 15:05 -4,4 C 8,0 C -2,5 C -4,1 C -4,1 C 0,3 C 83 % 81 % 8 % 1004,0 hPa 0,0 l/m 4,5 km/h (1 Bft) O-NO 67 0 min 0,0 UV-I -6,8 C -4,1 C 5,3 km/h (1 Bft)
12.03.2013 15:10 -4,5 C 8,0 C -2,5 C -4,1 C -4,1 C 0,4 C 84 % 81 % 11 % 1004,0 hPa 0,0 l/m 4,3 km/h (1 Bft) O-NO 67 0 min 0,0 UV-I -6,8 C -4,1 C 3,4 km/h (1 Bft)
12.03.2013 15:15 -4,5 C 8,0 C -2,5 C -3,7 C -3,7 C 0,8 C 84 % 82 % 21 % 1004,6 hPa 0,0 l/m 3,5 km/h (1 Bft) O-NO 67 0 min 0,0 UV-I -6,8 C -3,7 C 3,2 km/h (1 Bft)
12.03.2013 15:20 -4,6 C 8,2 C -2,8 C -3,7 C -3,7 C 0,9 C 85 % 82 % 24 % 1004,6 hPa 0,0 l/m 3,4 km/h (1 Bft) O-NO 67 0 min 0,0 UV-I -6,7 C -3,7 C 3,5 km/h (1 Bft)
12.03.2013 15:25 -4,5 C 8,1 C -2,5 C -3,4 C -3,4 C 1,1 C 85 % 83 % 29 % 1004,6 hPa 0,0 l/m 3,2 km/h (1 Bft) O-NO 67 0 min 0,0 UV-I -6,6 C -3,4 C 4,3 km/h (1 Bft)
12.03.2013 15:30 -4,5 C 8,1 C -2,4 C -3,3 C -3,3 C 1,2 C 85 % 82 % 32 % 1004,6 hPa 0,0 l/m 3,4 km/h (1 Bft) O-NO 67 0 min 0,0 UV-I -6,6 C -3,3 C 3,7 km/h (1 Bft)
12.03.2013 15:35 -4,5 C 8,1 C -2,1 C -2,9 C -2,9 C 1,6 C 86 % 83 % 42 % 1003,9 hPa 0,0 l/m 3,4 km/h (1 Bft) O-NO 67 0 min 0,0 UV-I -6,5 C -2,9 C 2,7 km/h (1 Bft)
12.03.2013 15:40 -4,5 C 8,1 C -2,3 C -2,6 C -2,6 C 1,9 C 86 % 83 % 50 % 1003,9 hPa 0,0 l/m 2,9 km/h (1 Bft) O-NO 67 0 min 0,0 UV-I -6,5 C -2,6 C 4,2 km/h (1 Bft)
12.03.2013 15:45 -4,5 C 8,1 C -2,6 C -2,2 C -2,2 C 2,3 C 86 % 82 % 61 % 1003,9 hPa 0,0 l/m 2,1 km/h (1 Bft) O-NO 67 0 min 0,0 UV-I -6,5 C -2,2 C 4,7 km/h (1 Bft)
12.03.2013 15:50 -4,5 C 8,1 C -2,8 C -2,4 C -2,4 C 2,1 C 86 % 82 % 55 % 1003,9 hPa 0,0 l/m 2,3 km/h (1 Bft) O-NO 67 0 min 0,0 UV-I -6,5 C -2,4 C 5,0 km/h (1 Bft)
12.03.2013 15:55 -4,5 C 8,1 C -2,8 C -2,8 C -2,8 C 1,7 C 85 % 82 % 45 % 1004,2 hPa 0,0 l/m 2,4 km/h (1 Bft) O-NO 67 0 min 0,0 UV-I -6,6 C -2,8 C 4,0 km/h (1 Bft)
12.03.2013 16:00 -4,5 C 8,1 C -2,8 C -2,7 C -2,7 C 1,8 C 85 % 83 % 47 % 1004,2 hPa 0,0 l/m 2,3 km/h (1 Bft) O-NO 67 0 min 0,0 UV-I -6,6 C -2,7 C 2,9 km/h (1 Bft)
12.03.2013 16:05 -4,7 C 8,2 C -2,8 C -3,6 C -3,6 C 1,1 C 86 % 83 % 29 % 1004,2 hPa 0,0 l/m 3,1 km/h (1 Bft) O-NO 67 0 min 0,0 UV-I -6,7 C -3,6 C 3,4 km/h (1 Bft)
12.03.2013 16:10 -4,7 C 8,0 C -2,8 C -3,5 C -3,5 C 1,2 C 86 % 83 % 32 % 1004,2 hPa 0,0 l/m 3,1 km/h (1 Bft) O-NO 67 0 min 0,0 UV-I -6,7 C -3,5 C 2,3 km/h (1 Bft)
12.03.2013 16:15 -4,7 C 8,0 C -2,7 C -3,0 C -3,0 C 1,7 C 86 % 83 % 45 % 1003,8 hPa 0,0 l/m 2,6 km/h (1 Bft) O-NO 67 0 min 0,0 UV-I -6,7 C -3,0 C 4,5 km/h (1 Bft)
12.03.2013 16:20 -4,5 C 8,1 C -2,9 C -2,7 C -2,7 C 1,8 C 86 % 82 % 47 % 1003,8 hPa 0,0 l/m 2,3 km/h (1 Bft) O-NO 67 0 min 0,0 UV-I -6,5 C -2,7 C 3,5 km/h (1 Bft)
12.03.2013 16:25 -4,5 C 8,2 C -2,9 C -2,9 C -2,9 C 1,6 C 85 % 83 % 42 % 1003,8 hPa 0,0 l/m 2,3 km/h (1 Bft) O-NO 67 0 min 0,0 UV-I -6,6 C -2,9 C 2,1 km/h (1 Bft)
12.03.2013 16:30 -4,7 C 8,1 C -3,1 C -2,9 C -2,9 C 1,8 C 85 % 83 % 47 % 1003,8 hPa 0,0 l/m 2,3 km/h (1 Bft) O-NO 67 0 min 0,0 UV-I -6,8 C -2,9 C 4,3 km/h (1 Bft)
12.03.2013 16:35 -4,7 C 8,1 C -3,2 C -4,1 C -4,1 C 0,6 C 85 % 83 % 16 % 1003,8 hPa 0,0 l/m 3,1 km/h (1 Bft) O-NO 67 0 min 0,0 UV-I -6,8 C -4,1 C 3,9 km/h (1 Bft)
12.03.2013 16:40 -4,8 C 8,1 C -3,3 C -4,7 C -4,7 C 0,1 C 85 % 83 % 3 % 1003,8 hPa 0,0 l/m 3,7 km/h (1 Bft) O-NO 67 0 min 0,0 UV-I -6,9 C -4,7 C 4,2 km/h (1 Bft)
12.03.2013 16:45 -4,7 C 8,1 C -3,5 C -4,8 C -4,9 C 0,0 C 85 % 83 % 0 % 1003,8 hPa 0,0 l/m 3,7 km/h (1 Bft) O-NO 67 0 min 0,0 UV-I -6,8 C -4,9 C 3,9 km/h (1 Bft)
12.03.2013 16:50 -4,9 C 8,1 C -3,5 C -4,6 C -4,6 C 0,3 C 85 % 84 % 8 % 1003,8 hPa 0,0 l/m 3,1 km/h (1 Bft) O-NO 67 0 min 0,0 UV-I -7,0 C -4,6 C 1,9 km/h (1 Bft)
12.03.2013 16:55 -4,9 C 8,1 C -3,6 C -3,8 C -3,8 C 1,1 C 85 % 84 % 29 % 1003,8 hPa 0,0 l/m 2,1 km/h (1 Bft) O-NO 67 0 min 0,0 UV-I -7,0 C -3,8 C 0,0 km/h (0 Bft)
12.03.2013 17:00 -4,9 C 8,2 C -3,5 C -3,8 C -3,8 C 1,1 C 85 % 84 % 29 % 1003,8 hPa 0,0 l/m 1,6 km/h (1 Bft) O-NO 67 0 min 0,0 UV-I -7,0 C -3,8 C 2,6 km/h (1 Bft)
12.03.2013 17:05 -4,9 C 8,2 C -3,7 C -3,8 C -3,8 C 1,1 C 85 % 84 % 29 % 1003,8 hPa 0,0 l/m 1,8 km/h (1 Bft) O-NO 67 0 min 0,0 UV-I -7,0 C -3,8 C 2,6 km/h (1 Bft)
12.03.2013 17:10 -4,9 C 8,2 C -3,7 C -3,9 C -3,9 C 1,0 C 86 % 85 % 26 % 1003,8 hPa 0,0 l/m 1,9 km/h (1 Bft) O-NO 67 0 min 0,0 UV-I -6,9 C -3,9 C 2,3 km/h (1 Bft)
12.03.2013 17:15 -4,9 C 8,2 C -3,7 C -4,0 C -4,0 C 0,9 C 86 % 85 % 24 % 1003,8 hPa 0,0 l/m 1,8 km/h (1 Bft) O-NO 67 0 min 0,0 UV-I -6,9 C -4,0 C 3,9 km/h (1 Bft)
12.03.2013 17:20 -4,9 C 8,2 C -3,9 C -4,1 C -4,1 C 0,8 C 86 % 85 % 21 % 1003,8 hPa 0,0 l/m 1,9 km/h (1 Bft) O-NO 67 0 min 0,0 UV-I -6,9 C -4,1 C 2,1 km/h (1 Bft)
12.03.2013 17:25 -5,1 C 8,2 C -4,0 C -4,6 C -4,6 C 0,5 C 86 % 86 % 13 % 1003,8 hPa 0,0 l/m 2,4 km/h (1 Bft) O-NO 67 0 min 0,0 UV-I -7,1 C -4,6 C 2,7 km/h (1 Bft)
12.03.2013 17:30 -5,2 C 8,2 C -4,1 C -4,8 C -4,8 C 0,4 C 86 % 86 % 11 % 1003,8 hPa 0,0 l/m 2,6 km/h (1 Bft) O-NO 67 0 min 0,0 UV-I -7,2 C -4,8 C 3,1 km/h (1 Bft)
12.03.2013 17:35 -5,3 C 8,2 C -4,1 C -5,2 C -5,2 C 0,1 C 86 % 86 % 3 % 1003,6 hPa 0,0 l/m 2,9 km/h (1 Bft) O-NO 67 0 min 0,0 UV-I -7,3 C -5,2 C 2,9 km/h (1 Bft)
12.03.2013 17:40 -5,3 C 8,2 C -4,2 C -4,9 C -4,9 C 0,4 C 87 % 86 % 11 % 1003,6 hPa 0,0 l/m 2,6 km/h (1 Bft) O-NO 67 0 min 0,0 UV-I -7,1 C -4,9 C 3,2 km/h (1 Bft)
12.03.2013 17:45 -5,3 C 8,2 C -4,1 C -4,6 C -4,6 C 0,7 C 87 % 87 % 18 % 1003,6 hPa 0,0 l/m 2,3 km/h (1 Bft) O-NO 67 5 min 0,0 UV-I -7,1 C -4,6 C 2,7 km/h (1 Bft)
12.03.2013 17:50 -5,4 C 8,2 C -4,3 C -5,1 C -5,1 C 0,3 C 87 % 87 % 8 % 1003,6 hPa 0,0 l/m 2,6 km/h (1 Bft) O-NO 67 0 min 0,0 UV-I -7,2 C -5,1 C 2,9 km/h (1 Bft)
12.03.2013 17:55 -5,3 C 8,2 C -4,3 C -4,9 C -4,9 C 0,4 C 87 % 87 % 11 % 1003,7 hPa 0,0 l/m 2,4 km/h (1 Bft) O-NO 67 5 min 0,0 UV-I -7,1 C -4,9 C 0,0 km/h (0 Bft)
12.03.2013 18:00 -5,3 C 8,2 C -4,3 C -4,7 C -4,7 C 0,6 C 87 % 87 % 0 % 1003,7 hPa 0,0 l/m 2,1 km/h (1 Bft) O-NO 67 0 min 0,0 UV-I -7,1 C -4,7 C 2,3 km/h (1 Bft)
12.03.2013 18:05 -5,5 C 8,2 C -4,4 C -4,6 C -4,6 C 0,9 C 87 % 87 % 0 % 1003,7 hPa 0,0 l/m 1,6 km/h (1 Bft) O-NO 67 0 min 0,0 UV-I -7,3 C -4,6 C 1,6 km/h (1 Bft)
12.03.2013 18:10 -5,5 C 8,2 C -4,4 C -4,7 C -4,7 C 0,8 C 87 % 87 % 0 % 1003,7 hPa 0,0 l/m 1,3 km/h (1 Bft) O-NO 67 0 min 0,0 UV-I -7,3 C -4,7 C 0,0 km/h (0 Bft)
12.03.2013 18:15 -5,5 C 8,2 C -4,5 C -4,7 C -4,7 C 0,8 C 87 % 87 % 0 % 1003,1 hPa 0,0 l/m 1,3 km/h (1 Bft) O-NO 67 0 min 0,0 UV-I -7,3 C -4,7 C 3,2 km/h (1 Bft)
12.03.2013 18:20 -5,5 C 8,2 C -4,5 C -4,8 C -4,8 C 0,7 C 87 % 87 % 0 % 1003,1 hPa 0,0 l/m 1,8 km/h (1 Bft) O-NO 67 0 min 0,0 UV-I -7,3 C -4,8 C 2,7 km/h (1 Bft)
12.03.2013 18:25 -5,5 C 8,2 C -4,5 C -5,0 C -5,0 C 0,5 C 87 % 87 % 0 % 1003,1 hPa 0,0 l/m 2,3 km/h (1 Bft) O-NO 67 0 min 0,0 UV-I -7,3 C -5,0 C 2,3 km/h (1 Bft)
12.03.2013 18:30 -5,6 C 8,2 C -4,5 C -5,0 C -5,0 C 0,6 C 87 % 87 % 0 % 1003,1 hPa 0,0 l/m 2,3 km/h (1 Bft) O-NO 67 0 min 0,0 UV-I -7,4 C -5,0 C 3,1 km/h (1 Bft)
12.03.2013 18:35 -5,6 C 8,2 C -4,5 C -5,0 C -5,0 C 0,6 C 87 % 87 % 0 % 1004,0 hPa 0,0 l/m 2,3 km/h (1 Bft) O-NO 67 0 min 0,0 UV-I -7,4 C -5,0 C 2,6 km/h (1 Bft)
12.03.2013 18:46 -5,6 C 8,2 C -4,5 C -4,8 C -4,8 C 0,8 C 87 % 87 % 0 % 1004,0 hPa 0,0 l/m 1,9 km/h (1 Bft) N 0 0 min 0,0 UV-I -7,4 C -4,8 C 2,4 km/h (1 Bft)
12.03.2013 19:00 -5,6 C 8,2 C -4,5 C -5,4 C -5,4 C 0,2 C 87 % 87 % 0 % 1003,8 hPa 0,0 l/m 2,7 km/h (1 Bft) O-NO 67 0 min 0,0 UV-I -7,4 C -5,4 C 2,7 km/h (1 Bft)
12.03.2013 19:05 -5,6 C 8,2 C -4,5 C -5,3 C -5,3 C 0,3 C 87 % 87 % 0 % 1003,8 hPa 0,0 l/m 2,6 km/h (1 Bft) O-NO 67 0 min 0,0 UV-I -7,4 C -5,3 C 3,4 km/h (1 Bft)
12.03.2013 19:10 -5,6 C 8,2 C -4,5 C -5,4 C -5,4 C 0,2 C 87 % 87 % 0 % 1003,8 hPa 0,0 l/m 2,7 km/h (1 Bft) O-NO 67 0 min 0,0 UV-I -7,4 C -5,4 C 3,2 km/h (1 Bft)
12.03.2013 19:15 -5,5 C 8,2 C -4,6 C -5,3 C -5,3 C 0,2 C 87 % 87 % 0 % 1003,7 hPa 0,0 l/m 2,6 km/h (1 Bft) O-NO 67 0 min 0,0 UV-I -7,3 C -5,3 C 2,4 km/h (1 Bft)
12.03.2013 19:20 -5,7 C 8,2 C -4,5 C -5,1 C -5,1 C 0,6 C 87 % 88 % 0 % 1003,7 hPa 0,0 l/m 2,3 km/h (1 Bft) O-NO 67 0 min 0,0 UV-I -7,5 C -5,1 C 1,6 km/h (1 Bft)
12.03.2013 19:25 -5,7 C 8,2 C -4,6 C -4,9 C -4,9 C 0,8 C 87 % 88 % 0 % 1003,7 hPa 0,0 l/m 2,1 km/h (1 Bft) O-NO 67 0 min 0,0 UV-I -7,5 C -4,9 C 2,7 km/h (1 Bft)
12.03.2013 19:30 -5,7 C 8,2 C -4,5 C -5,1 C -5,1 C 0,6 C 87 % 88 % 0 % 1003,7 hPa 0,0 l/m 2,3 km/h (1 Bft) O-NO 67 0 min 0,0 UV-I -7,5 C -5,1 C 3,2 km/h (1 Bft)
12.03.2013 19:35 -5,7 C 8,2 C -4,5 C -5,1 C -5,1 C 0,6 C 87 % 88 % 0 % 1003,4 hPa 0,0 l/m 2,3 km/h (1 Bft) O-NO 67 0 min 0,0 UV-I -7,5 C -5,1 C 2,7 km/h (1 Bft)
12.03.2013 19:40 -5,7 C 8,2 C -4,5 C -5,4 C -5,4 C 0,3 C 87 % 88 % 0 % 1003,4 hPa 0,0 l/m 2,6 km/h (1 Bft) O-NO 67 0 min 0,0 UV-I -7,5 C -5,4 C 3,4 km/h (1 Bft)
12.03.2013 19:45 -5,7 C 8,2 C -4,5 C -5,3 C -5,3 C 0,4 C 87 % 88 % 0 % 1003,4 hPa 0,0 l/m 2,4 km/h (1 Bft) O-NO 67 0 min 0,0 UV-I -7,5 C -5,3 C 2,7 km/h (1 Bft)
12.03.2013 19:50 -5,7 C 8,2 C -4,5 C -5,1 C -5,1 C 0,6 C 87 % 88 % 0 % 1003,4 hPa 0,0 l/m 2,3 km/h (1 Bft) O-NO 67 0 min 0,0 UV-I -7,5 C -5,1 C 3,7 km/h (1 Bft)
12.03.2013 19:55 -5,7 C 8,2 C -4,5 C -4,9 C -4,9 C 0,8 C 87 % 88 % 0 % 1003,7 hPa 0,0 l/m 2,1 km/h (1 Bft) O-NO 67 0 min 0,0 UV-I -7,5 C -4,9 C 3,1 km/h (1 Bft)
12.03.2013 20:00 -5,7 C 8,2 C -4,5 C -5,3 C -5,3 C 0,4 C 87 % 88 % 0 % 1003,7 hPa 0,0 l/m 2,4 km/h (1 Bft) O-NO 67 0 min 0,0 UV-I -7,5 C -5,3 C 4,3 km/h (1 Bft)
12.03.2013 20:05 -5,7 C 8,2 C -4,5 C -5,1 C -5,1 C 0,6 C 87 % 88 % 0 % 1003,7 hPa 0,0 l/m 2,3 km/h (1 Bft) O-NO 67 0 min 0,0 UV-I -7,5 C -5,1 C 1,6 km/h (1 Bft)
12.03.2013 20:10 -5,7 C 8,2 C -4,5 C -5,2 C -5,2 C 0,5 C 87 % 88 % 0 % 1003,7 hPa 0,0 l/m 2,3 km/h (1 Bft) O-NO 67 0 min 0,0 UV-I -7,5 C -5,2 C 3,1 km/h (1 Bft)
12.03.2013 20:15 -5,7 C 8,2 C -4,7 C -5,4 C -5,4 C 0,3 C 87 % 88 % 0 % 1003,7 hPa 0,0 l/m 2,4 km/h (1 Bft) O-NO 67 0 min 0,0 UV-I -7,5 C -5,4 C 3,4 km/h (1 Bft)
12.03.2013 20:20 -5,7 C 8,2 C -4,7 C -5,6 C -5,6 C 0,1 C 87 % 88 % 0 % 1003,7 hPa 0,0 l/m 2,6 km/h (1 Bft) O-NO 67 0 min 0,0 UV-I -7,5 C -5,6 C 2,6 km/h (1 Bft)
12.03.2013 20:25 -5,7 C 8,2 C -4,5 C -5,1 C -5,1 C 0,6 C 87 % 88 % 0 % 1003,7 hPa 0,0 l/m 2,1 km/h (1 Bft) O-NO 67 0 min 0,0 UV-I -7,5 C -5,1 C 1,9 km/h (1 Bft)
12.03.2013 20:30 -5,7 C 8,2 C -4,5 C -5,1 C -5,1 C 0,6 C 87 % 88 % 0 % 1003,7 hPa 0,0 l/m 2,1 km/h (1 Bft) O-NO 67 0 min 0,0 UV-I -7,5 C -5,1 C 3,1 km/h (1 Bft)
12.03.2013 20:35 -5,7 C 8,2 C -4,5 C -5,3 C -5,3 C 0,4 C 88 % 88 % 0 % 1003,7 hPa 0,0 l/m 2,4 km/h (1 Bft) O-NO 67 0 min 0,0 UV-I -7,4 C -5,3 C 1,9 km/h (1 Bft)
12.03.2013 20:40 -5,7 C 8,2 C -4,6 C -5,4 C -5,4 C 0,3 C 88 % 88 % 0 % 1003,7 hPa 0,0 l/m 2,6 km/h (1 Bft) O-NO 67 0 min 0,0 UV-I -7,4 C -5,4 C 2,9 km/h (1 Bft)
12.03.2013 20:45 -5,7 C 8,2 C -4,5 C -5,4 C -5,4 C 0,3 C 88 % 88 % 0 % 1003,7 hPa 0,0 l/m 2,6 km/h (1 Bft) O-NO 67 0 min 0,0 UV-I -7,4 C -5,4 C 2,9 km/h (1 Bft)
12.03.2013 20:50 -5,7 C 8,2 C -4,5 C -5,1 C -5,1 C 0,6 C 88 % 88 % 0 % 1003,7 hPa 0,0 l/m 2,3 km/h (1 Bft) O-NO 67 0 min 0,0 UV-I -7,4 C -5,1 C 2,6 km/h (1 Bft)
12.03.2013 20:55 -5,7 C 8,2 C -4,6 C -4,9 C -4,9 C 0,8 C 88 % 88 % 0 % 1003,8 hPa 0,0 l/m 1,1 km/h (1 Bft) O-NO 67 0 min 0,0 UV-I -7,4 C -4,9 C 0,0 km/h (0 Bft)
12.03.2013 21:00 -5,7 C 8,2 C -4,6 C -4,9 C -4,9 C 0,8 C 88 % 88 % 0 % 1003,8 hPa 0,0 l/m 0,8 km/h (0 Bft) O-NO 67 0 min 0,0 UV-I -7,4 C -4,9 C 0,0 km/h (0 Bft)
12.03.2013 21:05 -5,7 C 8,2 C -4,5 C -4,9 C -4,9 C 0,8 C 88 % 88 % 0 % 1003,8 hPa 0,0 l/m 0,6 km/h (0 Bft) O-NO 67 0 min 0,0 UV-I -7,4 C -4,9 C 1,9 km/h (1 Bft)
12.03.2013 21:10 -5,7 C 8,2 C -4,5 C -4,9 C -4,9 C 0,8 C 88 % 88 % 0 % 1003,8 hPa 0,0 l/m 0,6 km/h (0 Bft) O-NO 67 0 min 0,0 UV-I -7,4 C -4,9 C 1,8 km/h (1 Bft)
12.03.2013 21:15 -5,7 C 8,2 C -4,5 C -4,9 C -4,9 C 0,8 C 88 % 88 % 0 % 1003,6 hPa 0,0 l/m 0,8 km/h (0 Bft) O-NO 67 0 min 0,0 UV-I -7,4 C -4,9 C 1,8 km/h (1 Bft)
12.03.2013 21:20 -5,7 C 8,2 C -4,6 C -4,9 C -4,9 C 0,8 C 88 % 88 % 0 % 1003,6 hPa 0,0 l/m 1,0 km/h (0 Bft) O-NO 67 0 min 0,0 UV-I -7,4 C -4,9 C 0,0 km/h (0 Bft)
12.03.2013 21:25 -5,7 C 8,2 C -4,5 C -5,0 C -5,0 C 0,7 C 88 % 88 % 0 % 1003,6 hPa 0,0 l/m 1,0 km/h (0 Bft) O-NO 67 0 min 0,0 UV-I -7,4 C -5,0 C 3,5 km/h (1 Bft)
12.03.2013 21:30 -5,7 C 8,2 C -4,5 C -5,0 C -5,0 C 0,7 C 88 % 88 % 0 % 1003,6 hPa 0,0 l/m 0,8 km/h (0 Bft) O-NO 67 0 min 0,0 UV-I -7,4 C -5,0 C 0,0 km/h (0 Bft)
12.03.2013 21:35 -5,7 C 8,2 C -4,5 C -5,0 C -5,0 C 0,7 C 88 % 88 % 0 % 1003,6 hPa 0,0 l/m 1,0 km/h (0 Bft) O-NO 67 0 min 0,0 UV-I -7,4 C -5,0 C 0,0 km/h (0 Bft)
12.03.2013 21:40 -5,7 C 8,2 C -4,7 C -5,0 C -5,0 C 0,7 C 88 % 88 % 0 % 1003,6 hPa 0,0 l/m 1,3 km/h (1 Bft) O-NO 67 0 min 0,0 UV-I -7,4 C -5,0 C 5,0 km/h (1 Bft)
12.03.2013 21:45 -5,7 C 8,2 C -4,7 C -5,0 C -5,0 C 0,7 C 88 % 88 % 0 % 1003,6 hPa 0,0 l/m 1,6 km/h (1 Bft) O-NO 67 0 min 0,0 UV-I -7,4 C -5,0 C 2,1 km/h (1 Bft)
12.03.2013 21:50 -5,7 C 8,2 C -4,7 C -5,0 C -5,0 C 0,7 C 88 % 88 % 0 % 1003,6 hPa 0,0 l/m 1,8 km/h (1 Bft) O-NO 67 0 min 0,0 UV-I -7,4 C -5,0 C 2,6 km/h (1 Bft)
12.03.2013 21:55 -5,7 C 8,2 C -4,7 C -5,0 C -5,0 C 0,7 C 88 % 88 % 0 % 1003,8 hPa 0,0 l/m 1,1 km/h (1 Bft) O-NO 67 0 min 0,0 UV-I -7,4 C -5,0 C 4,7 km/h (1 Bft)
12.03.2013 22:00 -5,9 C 8,2 C -4,7 C -5,0 C -5,0 C 0,9 C 88 % 88 % 0 % 1003,8 hPa 0,0 l/m 1,3 km/h (1 Bft) O-NO 67 0 min 0,0 UV-I -7,6 C -5,0 C 0,0 km/h (0 Bft)
12.03.2013 22:05 -5,7 C 8,2 C -4,7 C -5,0 C -5,0 C 0,7 C 88 % 88 % 0 % 1003,8 hPa 0,0 l/m 1,4 km/h (1 Bft) O-NO 67 0 min 0,0 UV-I -7,4 C -5,0 C 0,0 km/h (0 Bft)
12.03.2013 22:10 -5,7 C 8,2 C -4,7 C -5,0 C -5,0 C 0,7 C 88 % 89 % 0 % 1003,8 hPa 0,0 l/m 0,8 km/h (0 Bft) O-NO 67 0 min 0,0 UV-I -7,4 C -5,0 C 0,0 km/h (0 Bft)
12.03.2013 22:15 -5,9 C 8,2 C -4,7 C -5,0 C -5,0 C 0,9 C 88 % 89 % 0 % 1003,2 hPa 0,0 l/m 1,0 km/h (0 Bft) O-NO 67 0 min 0,0 UV-I -7,6 C -5,0 C 2,6 km/h (1 Bft)
12.03.2013 22:20 -5,9 C 8,2 C -4,8 C -5,0 C -5,0 C 0,9 C 88 % 89 % 0 % 1003,2 hPa 0,0 l/m 1,1 km/h (1 Bft) O-NO 67 0 min 0,0 UV-I -7,6 C -5,0 C 2,1 km/h (1 Bft)
12.03.2013 22:25 -5,9 C 8,2 C -4,8 C -5,1 C -5,1 C 0,8 C 88 % 89 % 0 % 1003,2 hPa 0,0 l/m 1,9 km/h (1 Bft) O-NO 67 0 min 0,0 UV-I -7,6 C -5,1 C 1,9 km/h (1 Bft)
12.03.2013 22:30 -5,9 C 8,2 C -4,7 C -5,1 C -5,1 C 0,8 C 88 % 89 % 0 % 1003,2 hPa 0,0 l/m 1,9 km/h (1 Bft) O-NO 67 0 min 0,0 UV-I -7,6 C -5,1 C 1,8 km/h (1 Bft)
12.03.2013 22:35 -5,9 C 8,2 C -4,8 C -5,1 C -5,1 C 0,8 C 88 % 89 % 0 % 1003,6 hPa 0,0 l/m 1,4 km/h (1 Bft) O-NO 67 0 min 0,0 UV-I -7,6 C -5,1 C 2,1 km/h (1 Bft)
12.03.2013 22:40 -6,0 C 8,2 C -4,7 C -5,1 C -5,1 C 0,9 C 88 % 89 % 0 % 1003,6 hPa 0,0 l/m 1,3 km/h (1 Bft) O-NO 67 0 min 0,0 UV-I -7,7 C -5,1 C 1,8 km/h (1 Bft)
12.03.2013 22:45 -6,0 C 8,2 C -4,7 C -5,1 C -5,1 C 0,9 C 88 % 89 % 0 % 1003,6 hPa 0,0 l/m 1,0 km/h (0 Bft) O-NO 67 0 min 0,0 UV-I -7,7 C -5,1 C 0,0 km/h (0 Bft)
12.03.2013 22:50 -6,0 C 8,2 C -4,7 C -5,1 C -5,1 C 0,9 C 88 % 89 % 0 % 1003,6 hPa 0,0 l/m 0,8 km/h (0 Bft) O-NO 67 0 min 0,0 UV-I -7,7 C -5,1 C 0,0 km/h (0 Bft)
12.03.2013 22:55 -6,0 C 8,2 C -4,9 C -5,1 C -5,1 C 0,9 C 88 % 89 % 0 % 1003,4 hPa 0,0 l/m 1,1 km/h (1 Bft) O-NO 67 0 min 0,0 UV-I -7,7 C -5,1 C 0,0 km/h (0 Bft)
12.03.2013 23:00 -6,0 C 8,2 C -4,9 C -5,1 C -5,1 C 0,9 C 88 % 89 % 0 % 1003,4 hPa 0,0 l/m 1,6 km/h (1 Bft) O-NO 67 0 min 0,0 UV-I -7,7 C -5,1 C 3,2 km/h (1 Bft)
12.03.2013 23:05 -6,0 C 8,2 C -4,9 C -5,1 C -5,1 C 0,9 C 88 % 89 % 0 % 1003,4 hPa 0,0 l/m 1,3 km/h (1 Bft) O-NO 67 0 min 0,0 UV-I -7,7 C -5,1 C 0,0 km/h (0 Bft)
12.03.2013 23:10 -6,0 C 8,2 C -4,9 C -5,1 C -5,1 C 0,9 C 88 % 89 % 0 % 1003,4 hPa 0,0 l/m 1,3 km/h (1 Bft) O-NO 67 0 min 0,0 UV-I -7,7 C -5,1 C 1,9 km/h (1 Bft)
12.03.2013 23:15 -6,0 C 8,2 C -4,9 C -5,1 C -5,1 C 0,9 C 88 % 89 % 0 % 1003,6 hPa 0,0 l/m 1,0 km/h (0 Bft) O-NO 67 0 min 0,0 UV-I -7,7 C -5,1 C 2,3 km/h (1 Bft)
12.03.2013 23:20 -6,0 C 8,2 C -4,9 C -5,2 C -5,2 C 0,8 C 88 % 89 % 0 % 1003,6 hPa 0,0 l/m 1,3 km/h (1 Bft) O-NO 67 0 min 0,0 UV-I -7,7 C -5,2 C 4,7 km/h (1 Bft)
12.03.2013 23:25 -5,9 C 8,2 C -4,9 C -5,2 C -5,2 C 0,7 C 88 % 89 % 0 % 1003,6 hPa 0,0 l/m 1,1 km/h (1 Bft) O-NO 67 0 min 0,0 UV-I -7,6 C -5,2 C 1,9 km/h (1 Bft)
12.03.2013 23:30 -5,9 C 8,2 C -4,9 C -5,2 C -5,2 C 0,7 C 88 % 89 % 0 % 1003,6 hPa 0,0 l/m 1,0 km/h (0 Bft) O-NO 67 0 min 0,0 UV-I -7,6 C -5,2 C 2,3 km/h (1 Bft)
12.03.2013 23:35 -6,1 C 8,2 C -4,9 C -5,2 C -5,2 C 0,9 C 88 % 89 % 0 % 1004,2 hPa 0,0 l/m 1,0 km/h (0 Bft) O-NO 67 0 min 0,0 UV-I -7,8 C -5,2 C 3,7 km/h (1 Bft)
12.03.2013 23:40 -6,1 C 8,2 C -4,9 C -5,2 C -5,2 C 0,9 C 88 % 89 % 0 % 1004,2 hPa 0,0 l/m 1,0 km/h (0 Bft) O-NO 67 0 min 0,0 UV-I -7,8 C -5,2 C 2,7 km/h (1 Bft)
12.03.2013 23:45 -6,1 C 8,2 C -4,9 C -5,2 C -5,2 C 0,9 C 88 % 89 % 0 % 1004,2 hPa 0,0 l/m 1,0 km/h (0 Bft) O-NO 67 0 min 0,0 UV-I -7,8 C -5,2 C 0,0 km/h (0 Bft)
12.03.2013 23:50 -6,1 C 8,2 C -4,9 C -5,2 C -5,2 C 0,9 C 88 % 89 % 0 % 1004,2 hPa 0,0 l/m 1,1 km/h (1 Bft) O-NO 67 0 min 0,0 UV-I -7,8 C -5,2 C 1,8 km/h (1 Bft)
12.03.2013 23:55 -6,1 C 8,2 C -4,9 C -5,2 C -5,2 C 0,9 C 88 % 89 % 0 % 1003,6 hPa 0,0 l/m 1,0 km/h (0 Bft) O-NO 67 0 min 0,0 UV-I -7,8 C -5,2 C 0,0 km/h (0 Bft)
_ Min-Zeit 06:00 10:45 05:45 06:10 06:10 00:30 14:00 13:35 00:00 18:15 - 02:15 - - - 00:00 06:00 06:10 00:35
Minimum _ -6,1 C 8,0 C -5,0 C -6,2 C -6,4 C 0,0 C 80 % 77 % 0 % 1003,1 hPa - 0,3 km/h (0 Bft) - - - 0,0 UV-I -8,0 C -6,4 C 0,0 km/h (0 Bft)
_ Max-Zeit 13:30 00:00 13:25 13:30 13:30 10:05 20:35 22:10 10:05 00:15 00:00 12:25 - - 07:00 00:00 13:30 13:30 12:25
Maximum _ -3,7 C 8,4 C -1,3 C -1,4 C -1,4 C 3,2 C 88 % 89 % 84 % 1007,4 hPa 0,0 l/m 5,3 km/h
O-NO (1 Bft)
- - 19 min 0,0 UV-I -6,3 C -1,4 C 11,3 km/h
O-NO (2 Bft)
Durchschnitt _ -5,3 C 8,2 C -3,8 C -4,3 C -4,3 C 1,0 C 86 % 85 % 18 % 1004,9 hPa #0,0 l/m 2,3 km/h (1 Bft) O-NO - #50 min. 0,0 UV-I -7,3 C -4,4 C 3,0 km/h (1 Bft)
2013 www.wetterstation-wechselburg.de